Friday, January 19, 2018, 10:37 AM EST
Back to Local

KCKB, Harrison/marion Regional

Location: Bridgeport, WV, United States Lat: 39.3
Local Time: 10:37 AM EST (15:37 GMT) Lon: -80.217
Time Zone: US/Eastern Elev: 1204 ft

Show me the last for .
Show Coded

Time T Td Feel RH Dir Speed Gust Alt SLP Vis Weather Sky Remarks
2018-01-19 09:53 30 11 17 44 210° 13 22 30.20 30.23 10 CLR None
2018-01-19 08:53 27 10 17 48 210° 10 - 30.20 30.23 10 CLR None
2018-01-19 07:53 25 8 16 47 200° 9 - 30.20 30.23 10 CLR None
2018-01-19 06:53 24 8 14 49 210° 10 - 30.20 30.23 10 CLR 6-hr Min Temp (7am): 24.1°F
6-hr Max Temp (7am): 27.0°F
2018-01-19 05:53 25 8 16 47 210° 8 - 30.19 30.22 10 CLR None
2018-01-19 04:53 25 7 16 45 220° 9 - 30.19 30.21 10 CLR None
2018-01-19 03:53 26 7 18 43 220° 8 - 30.17 30.20 10 CLR None
2018-01-19 02:53 26 7 18 43 230° 8 - 30.17 30.19 10 CLR None
2018-01-19 01:53 26 8 16 45 210° 12 - 30.17 30.20 10 CLR None
2018-01-19 00:53 26 9 18 47 210° 8 - 30.18 30.21 10 CLR 6-hr Min Temp (1am): 24.1°F
6-hr Max Temp (1am): 27.0°F
2018-01-18 23:53 26 10 14 50 210° 14 - 30.21 30.24 10 CLR 24-hr Min Temp (12am): 10.0°F
24-hr Max Temp (12am): 28.9°F
2018-01-18 22:53 26 10 16 50 210° 12 - 30.23 30.27 10 CLR None
2018-01-18 21:53 25 9 15 49 200° 10 - 30.24 30.27 10 CLR None
2018-01-18 20:53 25 9 14 49 220° 12 - 30.24 30.28 10 CLR None
2018-01-18 19:53 26 9 16 47 210° 12 - 30.23 30.28 10 CLR None
2018-01-18 18:53 26 9 17 47 220° 9 - 30.23 30.27 10 CLR 6-hr Min Temp (7pm): 24.1°F
6-hr Max Temp (7pm): 28.9°F
2018-01-18 17:53 26 9 16 47 220° 10 - 30.21 30.24 10 CLR None
2018-01-18 16:53 28 10 19 46 220° 10 - 30.20 30.24 10 CLR None
2018-01-18 15:53 28 10 19 46 230° 10 - 30.20 30.23 10 CLR None
2018-01-18 14:53 28 9 16 43 230° 16 - 30.20 30.24 10 CLR None
2018-01-18 13:53 26 10 12 50 240° 15 21 30.23 30.27 10 CLR None
2018-01-18 12:53 24 9 8 51 230° 16 25 30.26 30.31 10 CLR 6-hr Min Temp (1pm): 10.9°F
6-hr Max Temp (1pm): 24.1°F
2018-01-18 11:53 21 8 3 56 240° 16 28 30.31 30.36 10 CLR None
2018-01-18 10:53 19 8 3 61 230° 15 21 30.34 30.39 10 CLR None

Support USWX by starting your Amazon purchase here.